Time;durP1;ratioP1;P1;durP2;ratioP2;P2;SDS_P1;SDS_P2;PMS_P1;PMS_P2;Temp;Humidity;BMP_temperature;BMP_pressure;BME280_temperature;BME280_humidity;BME280_pressure;Samples;Min_cycle;Max_cycle;Signal;HPM_P1;HPM_P2
2023/10/08 00:01:41;;;;;;;4.55;1.90;;;;;;;;;;4981972;28;20051;-69
2023/10/08 00:04:07;;;;;;;4.73;1.90;;;;;;;;;;4981466;28;20129;-68
2023/10/08 00:06:33;;;;;;;3.85;1.90;;;;;;;;;;4981905;28;20133;-69
2023/10/08 00:09:08;;;;;;;6.80;2.22;;;;;;;;;;4981639;28;20499;-68
2023/10/08 00:11:39;;;;;;;4.55;1.63;;;;;;;;;;4980961;28;20049;-69
2023/10/08 00:14:10;;;;;;;3.88;2.05;;;;;;;;;;4981143;28;20128;-68
2023/10/08 00:16:40;;;;;;;4.05;1.90;;;;;;;;;;4981390;28;20053;-68
2023/10/08 00:19:14;;;;;;;7.28;2.22;;;;;;;;;;4981647;28;20045;-68
2023/10/08 00:21:41;;;;;;;4.13;2.13;;;;;;;;;;4985042;28;20062;-69
2023/10/08 00:24:07;;;;;;;3.60;1.90;;;;;;;;;;4977603;28;20480;-69
2023/10/08 00:26:35;;;;;;;5.38;2.75;;;;;;;;;;4981235;28;20050;-70
2023/10/08 00:29:16;;;;;;;4.88;2.40;;;;;;;;;;4981012;28;20061;-69
2023/10/08 00:31:44;;;;;;;3.95;2.28;;;;;;;;;;4980464;28;20053;-68
2023/10/08 00:34:13;;;;;;;4.35;1.90;;;;;;;;;;4980408;28;20050;-69
2023/10/08 00:36:41;;;;;;;3.35;1.80;;;;;;;;;;4979900;28;20053;-68
2023/10/08 00:39:13;;;;;;;4.75;2.53;;;;;;;;;;4979978;28;20129;-67
2023/10/08 00:41:43;;;;;;;4.57;2.17;;;;;;;;;;4989432;28;20061;-67
2023/10/08 00:44:13;;;;;;;4.47;2.08;;;;;;;;;;4979073;28;20065;-68
2023/10/08 00:46:47;;;;;;;4.80;2.30;;;;;;;;;;4995609;28;20140;-68
2023/10/08 00:52:00;;;;;;;3.17;2.08;;;;;;;;;;4979745;28;20434;-67
2023/10/08 00:54:28;;;;;;;5.75;2.17;;;;;;;;;;4978425;28;20244;-68
2023/10/08 00:56:57;;;;;;;2.85;1.70;;;;;;;;;;4979938;28;20042;-69
2023/10/08 00:59:23;;;;;;;6.20;2.35;;;;;;;;;;4969530;28;20041;-68
2023/10/08 01:01:59;;;;;;;6.18;2.03;;;;;;;;;;4980274;28;20165;-69
2023/10/08 01:04:33;;;;;;;4.90;2.53;;;;;;;;;;4981551;28;20392;-68
2023/10/08 01:07:01;;;;;;;6.60;2.35;;;;;;;;;;4980101;28;20042;-68
2023/10/08 01:09:37;;;;;;;6.28;1.77;;;;;;;;;;4977644;28;20046;-68
2023/10/08 01:12:15;;;;;;;5.97;2.00;;;;;;;;;;4978574;28;20060;-70
2023/10/08 01:14:42;;;;;;;3.90;1.90;;;;;;;;;;4964799;28;20050;-69
2023/10/08 01:17:16;;;;;;;6.13;2.20;;;;;;;;;;4979760;28;20280;-69
2023/10/08 01:19:50;;;;;;;7.95;2.25;;;;;;;;;;4984245;28;20081;-68
2023/10/08 01:22:18;;;;;;;6.60;2.03;;;;;;;;;;4974561;28;20667;-70
2023/10/08 01:24:48;;;;;;;7.60;2.20;;;;;;;;;;4978253;28;20049;-68
2023/10/08 01:27:24;;;;;;;4.45;2.30;;;;;;;;;;4977142;28;20050;-68
2023/10/08 01:29:51;;;;;;;3.72;2.10;;;;;;;;;;4979121;28;20110;-70
2023/10/08 01:32:21;;;;;;;6.15;2.15;;;;;;;;;;4976225;28;20078;-68
2023/10/08 01:34:47;;;;;;;3.40;2.00;;;;;;;;;;4979023;28;20150;-68
2023/10/08 01:37:16;;;;;;;5.28;2.20;;;;;;;;;;4978088;28;20080;-68
2023/10/08 01:39:43;;;;;;;5.03;1.67;;;;;;;;;;4977977;28;20612;-69
2023/10/08 01:42:20;;;;;;;7.35;2.33;;;;;;;;;;4993918;28;20507;-69
2023/10/08 01:44:50;;;;;;;4.93;1.83;;;;;;;;;;4979098;28;20085;-68
2023/10/08 01:47:17;;;;;;;6.53;2.00;;;;;;;;;;4985250;28;20050;-69
2023/10/08 01:49:46;;;;;;;6.15;2.22;;;;;;;;;;4995326;28;20137;-68
2023/10/08 01:52:21;;;;;;;3.40;1.90;;;;;;;;;;4977589;28;20051;-68
2023/10/08 01:54:47;;;;;;;7.97;2.33;;;;;;;;;;4993595;28;20049;-69
2023/10/08 01:57:14;;;;;;;4.68;2.50;;;;;;;;;;4979928;28;20057;-67
2023/10/08 01:59:40;;;;;;;3.42;1.75;;;;;;;;;;4994793;28;20117;-68
2023/10/08 02:02:06;;;;;;;3.10;1.90;;;;;;;;;;4981273;28;20758;-68
2023/10/08 02:04:35;;;;;;;4.05;2.05;;;;;;;;;;4978171;28;20039;-69
2023/10/08 02:07:05;;;;;;;10.00;2.30;;;;;;;;;;4978219;28;20057;-68
2023/10/08 02:09:30;;;;;;;4.68;2.22;;;;;;;;;;4980271;28;20062;-69
2023/10/08 02:11:56;;;;;;;3.85;1.75;;;;;;;;;;4978644;28;20054;-68
2023/10/08 02:14:22;;;;;;;3.67;2.08;;;;;;;;;;4993897;28;20081;-68
2023/10/08 02:16:56;;;;;;;4.18;2.10;;;;;;;;;;4977456;28;20996;-68
2023/10/08 02:19:26;;;;;;;3.88;2.10;;;;;;;;;;4978034;28;20073;-67
2023/10/08 02:21:57;;;;;;;4.07;1.95;;;;;;;;;;4978587;28;20054;-69
2023/10/08 02:24:24;;;;;;;3.90;2.13;;;;;;;;;;4978946;28;20054;-69
2023/10/08 02:26:54;;;;;;;3.08;1.58;;;;;;;;;;4979276;28;20418;-69
2023/10/08 02:29:21;;;;;;;2.40;1.70;;;;;;;;;;4977983;28;20050;-70
2023/10/08 02:31:47;;;;;;;4.75;2.10;;;;;;;;;;4978608;28;20057;-69
2023/10/08 02:34:13;;;;;;;3.67;2.13;;;;;;;;;;4977445;28;20046;-69
2023/10/08 02:36:42;;;;;;;3.95;2.13;;;;;;;;;;4979690;28;20503;-68
2023/10/08 02:39:16;;;;;;;3.80;1.85;;;;;;;;;;4983011;28;20407;-69
2023/10/08 02:41:42;;;;;;;6.03;2.60;;;;;;;;;;4979769;28;20747;-68
2023/10/08 02:44:11;;;;;;;8.80;2.58;;;;;;;;;;4979047;28;20047;-68
2023/10/08 02:46:41;;;;;;;3.03;2.08;;;;;;;;;;4977520;28;20050;-69
2023/10/08 02:49:10;;;;;;;7.18;2.03;;;;;;;;;;4961718;28;20142;-69
2023/10/08 02:51:40;;;;;;;6.53;2.13;;;;;;;;;;4977748;28;20133;-69
2023/10/08 02:54:16;;;;;;;6.15;1.88;;;;;;;;;;4979080;28;20046;-69
2023/10/08 02:56:44;;;;;;;6.25;2.17;;;;;;;;;;4978135;28;20073;-68
2023/10/08 02:59:13;;;;;;;3.70;1.90;;;;;;;;;;4977198;28;20053;-69
2023/10/08 03:01:42;;;;;;;3.55;1.77;;;;;;;;;;4978030;28;20064;-69
2023/10/08 03:04:17;;;;;;;6.18;2.42;;;;;;;;;;4977703;28;20086;-68
2023/10/08 03:06:45;;;;;;;3.90;1.90;;;;;;;;;;4979731;28;20137;-69
2023/10/08 03:09:13;;;;;;;3.15;2.08;;;;;;;;;;4961327;28;20775;-69
2023/10/08 03:11:47;;;;;;;4.85;2.10;;;;;;;;;;4958338;28;20050;-69
2023/10/08 03:14:14;;;;;;;2.97;1.90;;;;;;;;;;4988054;28;20049;-68
2023/10/08 03:16:41;;;;;;;7.60;2.17;;;;;;;;;;4977570;28;20050;-69
2023/10/08 03:19:06;;;;;;;4.40;2.30;;;;;;;;;;4979554;28;20068;-69
2023/10/08 03:24:23;;;;;;;3.35;1.90;;;;;;;;;;4977360;28;20085;-71
2023/10/08 03:26:55;;;;;;;9.85;2.08;;;;;;;;;;4977423;28;20043;-69
2023/10/08 03:29:21;;;;;;;7.88;1.90;;;;;;;;;;4978944;28;20089;-68
2023/10/08 03:34:13;;;;;;;8.98;2.10;;;;;;;;;;4977374;28;20046;-67
2023/10/08 03:36:44;;;;;;;9.23;2.10;;;;;;;;;;4978528;28;20100;-67
2023/10/08 03:39:19;;;;;;;3.25;1.73;;;;;;;;;;4978794;28;20054;-67
2023/10/08 03:41:59;;;;;;;3.58;1.80;;;;;;;;;;4978853;28;20047;-67
2023/10/08 03:44:25;;;;;;;4.85;1.90;;;;;;;;;;4977700;28;20050;-67
2023/10/08 03:46:52;;;;;;;3.13;1.90;;;;;;;;;;4978504;28;20035;-68
2023/10/08 03:51:46;;;;;;;6.50;1.75;;;;;;;;;;4978905;28;20050;-68
2023/10/08 03:56:45;;;;;;;7.43;2.22;;;;;;;;;;4978509;28;20467;-67
2023/10/08 03:59:14;;;;;;;6.13;1.48;;;;;;;;;;4979349;28;20053;-69
2023/10/08 04:01:43;;;;;;;4.57;1.70;;;;;;;;;;4981987;28;20104;-68
2023/10/08 04:04:13;;;;;;;4.05;1.70;;;;;;;;;;4981021;28;20161;-69
2023/10/08 04:06:47;;;;;;;10.07;2.00;;;;;;;;;;4981201;28;20123;-69
2023/10/08 04:09:18;;;;;;;5.35;1.80;;;;;;;;;;4982216;28;20163;-69
2023/10/08 04:11:53;;;;;;;4.78;2.13;;;;;;;;;;4982320;28;20072;-69
2023/10/08 04:14:20;;;;;;;7.97;1.88;;;;;;;;;;4981021;28;20046;-69
2023/10/08 04:16:46;;;;;;;7.22;1.80;;;;;;;;;;4979937;28;20066;-67
2023/10/08 04:19:12;;;;;;;4.95;1.80;;;;;;;;;;4980281;28;20137;-69
2023/10/08 04:21:42;;;;;;;8.32;2.00;;;;;;;;;;4981575;28;20064;-68
2023/10/08 04:24:08;;;;;;;9.18;1.90;;;;;;;;;;4981096;28;20050;-69
2023/10/08 04:26:39;;;;;;;2.85;1.70;;;;;;;;;;4981392;28;20403;-68
2023/10/08 04:29:06;;;;;;;6.37;1.63;;;;;;;;;;4980888;28;20050;-69
2023/10/08 04:31:39;;;;;;;3.35;1.75;;;;;;;;;;4981461;28;20558;-69
2023/10/08 04:34:22;;;;;;;3.80;1.70;;;;;;;;;;4980610;28;20074;-69
2023/10/08 04:37:33;;;;;;;4.28;1.98;;;;;;;;;;4981850;28;20496;-70
2023/10/08 04:39:34;;;;;;;9.13;1.73;;;;;;;;;;4979371;28;20492;-69
2023/10/08 04:42:06;;;;;;;4.95;1.73;;;;;;;;;;4980672;28;20060;-70
2023/10/08 04:44:32;;;;;;;6.07;2.03;;;;;;;;;;4956440;28;20043;-69
2023/10/08 04:47:04;;;;;;;6.32;1.88;;;;;;;;;;4965307;28;20061;-68
2023/10/08 04:49:32;;;;;;;5.85;2.00;;;;;;;;;;4979877;28;20046;-69
2023/10/08 04:52:13;;;;;;;8.93;1.58;;;;;;;;;;4979826;28;20673;-69
2023/10/08 04:54:46;;;;;;;7.07;1.88;;;;;;;;;;4992143;28;20156;-69
2023/10/08 04:57:15;;;;;;;5.10;2.10;;;;;;;;;;4979957;28;20046;-69
2023/10/08 04:59:44;;;;;;;5.68;1.85;;;;;;;;;;4979823;28;20061;-69
2023/10/08 05:05:21;;;;;;;3.33;1.63;;;;;;;;;;4980287;28;20990;-69
2023/10/08 05:10:32;;;;;;;7.20;1.77;;;;;;;;;;4978644;28;20038;-69
2023/10/08 05:15:47;;;;;;;7.18;2.15;;;;;;;;;;4979301;28;20042;-69
2023/10/08 05:28:35;;;;;;;6.40;2.20;;;;;;;;;;4978630;28;20054;-70
2023/10/08 05:39:29;;;;;;;6.13;2.20;;;;;;;;;;4956969;28;20050;-71
2023/10/08 05:42:13;;;;;;;8.18;2.00;;;;;;;;;;4974843;28;20068;-69
2023/10/08 05:55:34;;;;;;;8.05;2.03;;;;;;;;;;4974860;28;20050;-71
2023/10/08 06:01:07;;;;;;;11.57;2.13;;;;;;;;;;4988914;28;20129;-71
2023/10/08 06:03:36;;;;;;;4.70;2.00;;;;;;;;;;4974992;28;20069;-70
2023/10/08 06:08:49;;;;;;;7.60;1.85;;;;;;;;;;4989709;28;20054;-71
2023/10/08 06:11:27;;;;;;;6.88;1.77;;;;;;;;;;4976636;28;20030;-73
2023/10/08 06:13:59;;;;;;;5.45;2.05;;;;;;;;;;4977058;28;20062;-70
2023/10/08 06:16:41;;;;;;;5.60;2.20;;;;;;;;;;4976445;28;20050;-72
2023/10/08 06:19:09;;;;;;;4.53;2.05;;;;;;;;;;4975953;28;20046;-70
2023/10/08 06:21:37;;;;;;;4.78;1.83;;;;;;;;;;4974538;28;20049;-73
2023/10/08 06:24:08;;;;;;;6.40;2.05;;;;;;;;;;4977298;28;20135;-70
2023/10/08 06:26:38;;;;;;;5.93;1.90;;;;;;;;;;4976292;28;20100;-69
2023/10/08 06:29:18;;;;;;;6.78;1.98;;;;;;;;;;4976675;28;20053;-71
2023/10/08 06:31:50;;;;;;;2.60;1.40;;;;;;;;;;4976168;28;20573;-69
2023/10/08 06:34:16;;;;;;;5.00;2.00;;;;;;;;;;4977041;28;20046;-69
2023/10/08 06:36:42;;;;;;;4.25;2.05;;;;;;;;;;4975006;28;20053;-72
2023/10/08 06:39:11;;;;;;;4.90;2.03;;;;;;;;;;4976149;28;20050;-72
2023/10/08 06:41:37;;;;;;;7.80;2.22;;;;;;;;;;4976084;28;20061;-70
2023/10/08 06:44:02;;;;;;;3.55;1.80;;;;;;;;;;4976153;28;20046;-70
2023/10/08 06:46:32;;;;;;;5.05;2.40;;;;;;;;;;4975178;28;20057;-74
2023/10/08 06:49:02;;;;;;;4.82;1.60;;;;;;;;;;4976691;28;20453;-71
2023/10/08 06:51:30;;;;;;;7.25;2.33;;;;;;;;;;4945703;28;20049;-73
2023/10/08 06:53:56;;;;;;;5.13;1.83;;;;;;;;;;4976735;28;20073;-70
2023/10/08 06:56:23;;;;;;;3.67;1.85;;;;;;;;;;4975851;28;20133;-73
2023/10/08 06:58:52;;;;;;;7.53;2.55;;;;;;;;;;4977471;28;20042;-71
2023/10/08 07:01:21;;;;;;;5.30;2.08;;;;;;;;;;4976474;28;20050;-71
2023/10/08 07:03:51;;;;;;;3.35;2.00;;;;;;;;;;4975413;28;20049;-69
2023/10/08 07:06:25;;;;;;;4.03;2.80;;;;;;;;;;4975930;28;20046;-71
2023/10/08 07:08:54;;;;;;;3.05;2.10;;;;;;;;;;4976635;28;20058;-70
2023/10/08 07:11:21;;;;;;;9.95;2.15;;;;;;;;;;4976954;28;20046;-70
2023/10/08 07:13:47;;;;;;;6.80;2.58;;;;;;;;;;4975263;28;20046;-70
2023/10/08 07:16:12;;;;;;;3.65;1.90;;;;;;;;;;4976086;28;20054;-70
2023/10/08 07:18:38;;;;;;;5.95;2.13;;;;;;;;;;4977118;28;20385;-71
2023/10/08 07:21:12;;;;;;;4.95;2.20;;;;;;;;;;4976603;28;20054;-72
2023/10/08 07:23:55;;;;;;;4.25;2.22;;;;;;;;;;4975384;28;20050;-71
2023/10/08 07:26:24;;;;;;;4.47;2.22;;;;;;;;;;4976345;28;20046;-71
2023/10/08 07:28:51;;;;;;;11.85;2.95;;;;;;;;;;4976559;28;20121;-69
2023/10/08 07:31:22;;;;;;;6.82;2.08;;;;;;;;;;4976530;28;20141;-69
2023/10/08 07:33:56;;;;;;;9.50;2.05;;;;;;;;;;4975854;28;20615;-70
2023/10/08 07:36:30;;;;;;;6.75;1.98;;;;;;;;;;4979391;28;20491;-71
2023/10/08 07:38:56;;;;;;;5.47;1.98;;;;;;;;;;4980567;28;20053;-70
2023/10/08 07:41:22;;;;;;;4.43;2.25;;;;;;;;;;4982105;28;20046;-70
2023/10/08 07:43:55;;;;;;;6.10;2.13;;;;;;;;;;4981751;28;20050;-70
2023/10/08 07:46:21;;;;;;;10.68;2.30;;;;;;;;;;4978908;28;20252;-70
2023/10/08 07:48:47;;;;;;;6.22;1.83;;;;;;;;;;4981257;28;20544;-69
2023/10/08 07:51:14;;;;;;;8.65;2.30;;;;;;;;;;4981498;28;20049;-69
2023/10/08 07:53:41;;;;;;;9.00;2.05;;;;;;;;;;4981857;28;20096;-70
2023/10/08 07:56:08;;;;;;;6.60;2.83;;;;;;;;;;4978776;28;20041;-70
2023/10/08 07:58:36;;;;;;;7.85;2.40;;;;;;;;;;4981185;28;20157;-70
2023/10/08 08:01:06;;;;;;;4.38;1.83;;;;;;;;;;4980748;28;20054;-70
2023/10/08 08:03:34;;;;;;;6.32;2.03;;;;;;;;;;4981612;28;20038;-70
2023/10/08 08:06:00;;;;;;;5.88;2.10;;;;;;;;;;4981434;28;20050;-69
2023/10/08 08:08:27;;;;;;;9.10;2.88;;;;;;;;;;4979914;28;20133;-69
2023/10/08 08:11:03;;;;;;;5.53;2.50;;;;;;;;;;4981215;28;20050;-69
2023/10/08 08:13:28;;;;;;;4.72;2.10;;;;;;;;;;4979008;28;20057;-69
2023/10/08 08:16:09;;;;;;;3.83;2.05;;;;;;;;;;4979251;28;20046;-69
2023/10/08 08:18:36;;;;;;;8.75;2.05;;;;;;;;;;4976998;28;20054;-70
2023/10/08 08:21:02;;;;;;;4.93;2.45;;;;;;;;;;4978646;28;20065;-69
2023/10/08 08:23:31;;;;;;;7.22;2.10;;;;;;;;;;4978872;28;20046;-69
2023/10/08 08:26:11;;;;;;;4.18;2.05;;;;;;;;;;4978780;28;20077;-70
2023/10/08 08:28:36;;;;;;;5.35;1.95;;;;;;;;;;4988129;28;20039;-69
2023/10/08 08:31:13;;;;;;;11.27;2.25;;;;;;;;;;4957855;28;20050;-70
2023/10/08 08:33:59;;;;;;;7.13;2.13;;;;;;;;;;4959664;28;20137;-69
2023/10/08 08:36:27;;;;;;;6.90;2.33;;;;;;;;;;4957457;28;20047;-69
2023/10/08 08:38:52;;;;;;;4.72;2.33;;;;;;;;;;4959497;28;20822;-70
2023/10/08 08:41:20;;;;;;;6.60;1.88;;;;;;;;;;4958037;28;20051;-70
2023/10/08 08:43:58;;;;;;;4.85;2.20;;;;;;;;;;4958993;28;20057;-69
2023/10/08 08:46:37;;;;;;;6.95;3.13;;;;;;;;;;4958110;28;20050;-70
2023/10/08 08:49:04;;;;;;;5.18;2.08;;;;;;;;;;4959062;28;20062;-70
2023/10/08 08:51:31;;;;;;;8.98;2.40;;;;;;;;;;4959626;28;20047;-71
2023/10/08 08:53:59;;;;;;;9.68;2.20;;;;;;;;;;4960004;28;20050;-70
2023/10/08 08:56:26;;;;;;;9.57;2.20;;;;;;;;;;4959219;28;20046;-70
2023/10/08 08:58:52;;;;;;;5.55;2.15;;;;;;;;;;4958618;28;20058;-69
2023/10/08 09:01:19;;;;;;;9.63;2.35;;;;;;;;;;4957737;28;20100;-70
2023/10/08 09:03:47;;;;;;;9.07;2.13;;;;;;;;;;4959676;28;20039;-70
2023/10/08 09:06:13;;;;;;;5.93;2.00;;;;;;;;;;4959244;28;20039;-70
2023/10/08 09:08:42;;;;;;;14.63;2.38;;;;;;;;;;4959851;28;20339;-71
2023/10/08 09:11:08;;;;;;;8.15;2.20;;;;;;;;;;4959574;28;20051;-71
2023/10/08 09:13:34;;;;;;;9.05;2.42;;;;;;;;;;4957787;28;20065;-70
2023/10/08 09:16:18;;;;;;;7.63;2.40;;;;;;;;;;4959345;28;20061;-70
2023/10/08 09:18:51;;;;;;;8.07;2.20;;;;;;;;;;4956794;28;20077;-70
2023/10/08 09:21:19;;;;;;;8.52;2.22;;;;;;;;;;4960351;28;20047;-70
2023/10/08 09:23:50;;;;;;;4.20;2.38;;;;;;;;;;4955335;28;20109;-70
2023/10/08 09:26:23;;;;;;;6.60;1.73;;;;;;;;;;4962126;28;20826;-72
2023/10/08 09:28:49;;;;;;;7.22;2.35;;;;;;;;;;4960499;28;20731;-72
2023/10/08 09:31:17;;;;;;;4.32;2.00;;;;;;;;;;4962055;28;20050;-71
2023/10/08 09:33:52;;;;;;;7.78;2.67;;;;;;;;;;4965871;28;20520;-71
2023/10/08 09:36:19;;;;;;;6.22;2.20;;;;;;;;;;4973589;28;20050;-72
2023/10/08 09:38:48;;;;;;;7.85;2.50;;;;;;;;;;4959386;28;20039;-71
2023/10/08 09:41:14;;;;;;;6.97;2.75;;;;;;;;;;4959205;28;20051;-71
2023/10/08 09:43:41;;;;;;;6.03;2.03;;;;;;;;;;4958884;28;20058;-71
2023/10/08 09:46:19;;;;;;;6.93;2.75;;;;;;;;;;4959470;28;20494;-72
2023/10/08 09:48:51;;;;;;;6.55;2.72;;;;;;;;;;4960786;28;20400;-71
2023/10/08 09:51:17;;;;;;;4.38;1.83;;;;;;;;;;4960956;28;20053;-72
2023/10/08 09:53:53;;;;;;;9.00;2.05;;;;;;;;;;4960852;28;20049;-72
2023/10/08 09:56:20;;;;;;;6.38;2.05;;;;;;;;;;4957760;28;20046;-72
2023/10/08 09:58:49;;;;;;;11.18;2.25;;;;;;;;;;4960294;28;20050;-72
2023/10/08 10:01:16;;;;;;;6.07;2.00;;;;;;;;;;4962227;28;20053;-72
2023/10/08 10:03:43;;;;;;;6.20;2.42;;;;;;;;;;4962856;28;20049;-71
2023/10/08 10:06:17;;;;;;;8.18;2.78;;;;;;;;;;4962336;28;20139;-72
2023/10/08 10:08:44;;;;;;;7.80;2.08;;;;;;;;;;4963003;28;20062;-71
2023/10/08 10:11:10;;;;;;;5.43;2.25;;;;;;;;;;4964433;28;20039;-71
2023/10/08 10:13:50;;;;;;;5.97;1.92;;;;;;;;;;4964792;28;20050;-71
2023/10/08 10:16:21;;;;;;;13.07;2.65;;;;;;;;;;4964088;28;20034;-71
2023/10/08 10:18:49;;;;;;;6.88;2.28;;;;;;;;;;4964344;28;20082;-72
2023/10/08 10:21:15;;;;;;;11.52;3.00;;;;;;;;;;4964054;28;20047;-72
2023/10/08 10:23:53;;;;;;;10.10;2.60;;;;;;;;;;4961260;28;20137;-71
2023/10/08 10:26:26;;;;;;;10.10;2.63;;;;;;;;;;4955953;28;20063;-74
2023/10/08 10:29:10;;;;;;;8.10;2.28;;;;;;;;;;4957153;28;20105;-73
2023/10/08 10:31:36;;;;;;;5.65;2.13;;;;;;;;;;4957772;28;20049;-74
2023/10/08 10:34:08;;;;;;;5.32;1.92;;;;;;;;;;4957650;28;20666;-71
2023/10/08 10:36:33;;;;;;;;;;;;;;;;;;4958513;28;20057;-73
2023/10/08 10:38:59;;;;;;;8.77;2.42;;;;;;;;;;4956785;28;19922;-72
2023/10/08 10:41:27;;;;;;;5.30;2.00;;;;;;;;;;4957876;28;20141;-70
2023/10/08 10:43:53;;;;;;;8.77;2.35;;;;;;;;;;4957632;28;20129;-72
2023/10/08 10:46:29;;;;;;;5.38;2.33;;;;;;;;;;4960757;28;20046;-71
2023/10/08 10:49:17;;;;;;;8.10;2.40;;;;;;;;;;4960400;28;20054;-74
2023/10/08 10:51:42;;;;;;;8.43;2.35;;;;;;;;;;4959883;28;20046;-73
2023/10/08 10:54:09;;;;;;;6.65;2.17;;;;;;;;;;4956574;28;20053;-73
2023/10/08 10:56:45;;;;;;;5.60;1.95;;;;;;;;;;4958692;28;20058;-74
2023/10/08 10:59:22;;;;;;;6.47;2.20;;;;;;;;;;4955719;28;20152;-73
2023/10/08 11:01:52;;;;;;;5.60;1.73;;;;;;;;;;4972757;28;20107;-74
2023/10/08 11:04:28;;;;;;;7.45;2.92;;;;;;;;;;4957068;28;20078;-74
2023/10/08 11:06:58;;;;;;;7.30;2.10;;;;;;;;;;4958047;28;20165;-72
2023/10/08 11:09:37;;;;;;;5.25;2.35;;;;;;;;;;4960866;28;20053;-73
2023/10/08 11:12:10;;;;;;;6.63;2.25;;;;;;;;;;4961545;28;20113;-73
2023/10/08 11:14:43;;;;;;;7.00;2.50;;;;;;;;;;4961891;28;20046;-72
2023/10/08 11:17:14;;;;;;;6.45;2.60;;;;;;;;;;4961702;28;20062;-73
2023/10/08 11:19:42;;;;;;;9.20;2.22;;;;;;;;;;4963829;28;20454;-72
2023/10/08 11:22:15;;;;;;;5.35;2.63;;;;;;;;;;4962238;28;20065;-73
2023/10/08 11:24:42;;;;;;;6.38;2.30;;;;;;;;;;4963593;28;20149;-75
2023/10/08 11:27:17;;;;;;;11.25;2.53;;;;;;;;;;4961703;28;21279;-74
2023/10/08 11:29:56;;;;;;;7.35;2.70;;;;;;;;;;4962820;28;20043;-73
2023/10/08 11:32:25;;;;;;;11.90;2.28;;;;;;;;;;4966666;28;20440;-72
2023/10/08 11:34:55;;;;;;;12.50;2.33;;;;;;;;;;5002532;28;20078;-71
2023/10/08 11:37:28;;;;;;;5.90;2.10;;;;;;;;;;4982744;28;20145;-71
2023/10/08 11:39:57;;;;;;;6.88;2.08;;;;;;;;;;4989762;28;20057;-72
2023/10/08 11:44:59;;;;;;;5.20;2.10;;;;;;;;;;4988207;28;20069;-70
2023/10/08 11:47:35;;;;;;;8.77;2.90;;;;;;;;;;4987151;28;20046;-71
2023/10/08 11:50:10;;;;;;;7.22;2.25;;;;;;;;;;4990125;28;20056;-72
2023/10/08 11:52:41;;;;;;;14.73;2.92;;;;;;;;;;4991272;28;20057;-72
2023/10/08 11:55:08;;;;;;;6.35;2.10;;;;;;;;;;4988684;28;20050;-72
2023/10/08 11:57:35;;;;;;;6.57;2.22;;;;;;;;;;4991481;28;20514;-72
2023/10/08 12:00:17;;;;;;;8.85;2.28;;;;;;;;;;4990405;28;20073;-71
2023/10/08 12:02:43;;;;;;;5.82;2.63;;;;;;;;;;4997470;28;20050;-71
2023/10/08 12:05:18;;;;;;;11.45;2.50;;;;;;;;;;4980527;28;20046;-73
2023/10/08 12:07:48;;;;;;;7.55;2.22;;;;;;;;;;4981873;28;20050;-73
2023/10/08 12:10:16;;;;;;;6.20;1.83;;;;;;;;;;4986795;28;20550;-73
2023/10/08 12:12:43;;;;;;;4.85;2.13;;;;;;;;;;4988061;28;20142;-72
2023/10/08 12:15:09;;;;;;;9.30;2.53;;;;;;;;;;4993494;28;20061;-72
2023/10/08 12:17:39;;;;;;;6.07;1.98;;;;;;;;;;4987376;28;20035;-73
2023/10/08 12:20:22;;;;;;;14.90;2.53;;;;;;;;;;4986110;28;20050;-72
2023/10/08 12:22:51;;;;;;;7.82;2.30;;;;;;;;;;4978155;28;20055;-73
2023/10/08 12:25:17;;;;;;;9.10;2.35;;;;;;;;;;4955349;28;20168;-73
2023/10/08 12:27:43;;;;;;;8.63;1.80;;;;;;;;;;4967475;28;20082;-74
2023/10/08 12:30:10;;;;;;;6.28;2.28;;;;;;;;;;4961491;28;20057;-75
2023/10/08 12:32:42;;;;;;;12.32;2.35;;;;;;;;;;4961471;28;20078;-74
2023/10/08 12:35:12;;;;;;;8.98;2.35;;;;;;;;;;4964857;28;20042;-73
2023/10/08 12:37:44;;;;;;;9.70;2.03;;;;;;;;;;4964676;28;20054;-73
2023/10/08 12:40:22;;;;;;;9.35;2.67;;;;;;;;;;4961871;28;20046;-72
2023/10/08 12:42:54;;;;;;;8.15;2.00;;;;;;;;;;4959802;28;20101;-74
2023/10/08 12:45:20;;;;;;;6.97;2.38;;;;;;;;;;4962519;28;20051;-76
2023/10/08 12:47:54;;;;;;;8.70;2.28;;;;;;;;;;4960892;28;20085;-75
2023/10/08 12:50:29;;;;;;;8.30;2.10;;;;;;;;;;4959476;28;20431;-72
2023/10/08 12:53:03;;;;;;;8.30;2.60;;;;;;;;;;4959993;28;20046;-74
2023/10/08 12:55:30;;;;;;;14.27;2.55;;;;;;;;;;4958585;28;20775;-75
2023/10/08 12:58:03;;;;;;;5.63;2.55;;;;;;;;;;4959736;28;20145;-75
2023/10/08 13:00:30;;;;;;;6.43;1.85;;;;;;;;;;4958786;28;20117;-74
2023/10/08 13:02:57;;;;;;;10.25;2.08;;;;;;;;;;4959244;28;20046;-76
2023/10/08 13:05:28;;;;;;;10.10;2.45;;;;;;;;;;4957984;28;20043;-73
2023/10/08 13:07:55;;;;;;;6.85;2.80;;;;;;;;;;4959500;28;20062;-75
2023/10/08 13:10:25;;;;;;;11.85;2.95;;;;;;;;;;4973407;28;20646;-78
2023/10/08 13:12:51;;;;;;;8.35;2.35;;;;;;;;;;4959147;28;20047;-74
2023/10/08 13:15:17;;;;;;;9.07;2.33;;;;;;;;;;4958365;28;20053;-73
2023/10/08 13:17:42;;;;;;;5.10;2.00;;;;;;;;;;4958853;28;20039;-72
2023/10/08 13:20:11;;;;;;;6.50;2.25;;;;;;;;;;4958741;28;20059;-72
2023/10/08 13:22:38;;;;;;;10.05;2.10;;;;;;;;;;4958047;28;20055;-74
2023/10/08 13:25:04;;;;;;;10.23;2.70;;;;;;;;;;4959031;28;20133;-74
2023/10/08 13:27:30;;;;;;;9.88;3.22;;;;;;;;;;4969279;28;20558;-77
2023/10/08 13:29:56;;;;;;;16.23;1.90;;;;;;;;;;4978692;28;20057;-76
2023/10/08 13:32:21;;;;;;;10.95;2.00;;;;;;;;;;4977631;28;20058;-78
2023/10/08 13:34:47;;;;;;;6.95;2.50;;;;;;;;;;4979924;28;20504;-75
2023/10/08 13:37:15;;;;;;;7.35;2.08;;;;;;;;;;4979144;28;20058;-74
2023/10/08 13:39:40;;;;;;;7.82;2.35;;;;;;;;;;4979076;28;20045;-72
2023/10/08 13:42:06;;;;;;;12.52;2.00;;;;;;;;;;4979123;28;20046;-76
2023/10/08 13:44:31;;;;;;;8.20;1.90;;;;;;;;;;4979303;28;20142;-77
2023/10/08 13:46:59;;;;;;;10.30;2.10;;;;;;;;;;4977764;28;20054;-74
2023/10/08 13:49:26;;;;;;;8.50;2.08;;;;;;;;;;4978745;28;20081;-77
2023/10/08 13:51:58;;;;;;;8.23;1.95;;;;;;;;;;4980146;28;20062;-72
2023/10/08 13:54:32;;;;;;;14.90;2.65;;;;;;;;;;4977693;28;20054;-73
2023/10/08 13:57:01;;;;;;;14.95;2.70;;;;;;;;;;4980143;28;20100;-74
2023/10/08 13:59:26;;;;;;;13.77;2.38;;;;;;;;;;4978361;28;20073;-77
2023/10/08 14:01:52;;;;;;;11.88;2.42;;;;;;;;;;4979286;28;20129;-73
2023/10/08 14:04:19;;;;;;;7.85;2.42;;;;;;;;;;4979088;28;20455;-73
2023/10/08 14:06:48;;;;;;;8.30;2.00;;;;;;;;;;4978541;28;20054;-74
2023/10/08 14:09:20;;;;;;;18.35;3.15;;;;;;;;;;4979822;28;20113;-77
2023/10/08 14:11:46;;;;;;;17.00;3.08;;;;;;;;;;4977391;28;20569;-73
2023/10/08 14:14:12;;;;;;;10.65;2.20;;;;;;;;;;4977082;28;20057;-72
2023/10/08 14:16:46;;;;;;;11.52;2.67;;;;;;;;;;4977145;28;20045;-76
2023/10/08 14:19:13;;;;;;;6.85;2.10;;;;;;;;;;4977542;28;20050;-76
2023/10/08 14:21:53;;;;;;;8.88;2.47;;;;;;;;;;4976284;28;20042;-72
2023/10/08 14:24:20;;;;;;;9.15;2.20;;;;;;;;;;4976274;28;20508;-76
2023/10/08 14:26:51;;;;;;;9.50;2.55;;;;;;;;;;4975709;28;20125;-77
2023/10/08 14:29:17;;;;;;;;;;;;;;;;;;4977522;28;20455;-73
2023/10/08 14:31:48;;;;;;;9.00;1.80;;;;;;;;;;4977327;28;19921;-72
2023/10/08 14:44:56;;;;;;;15.20;2.53;;;;;;;;;;4977390;28;20053;-76
2023/10/08 14:47:22;;;;;;;7.88;2.45;;;;;;;;;;4976682;28;20054;-77
2023/10/08 14:49:47;;;;;;;9.85;2.60;;;;;;;;;;4978550;28;20474;-74
2023/10/08 14:52:13;;;;;;;12.25;2.55;;;;;;;;;;4976334;28;20097;-74
2023/10/08 14:54:39;;;;;;;12.30;3.03;;;;;;;;;;4976328;28;20467;-75
2023/10/08 14:57:05;;;;;;;7.28;2.38;;;;;;;;;;4977479;28;20126;-75
2023/10/08 14:59:31;;;;;;;12.13;2.10;;;;;;;;;;4977258;28;20073;-74
2023/10/08 15:01:58;;;;;;;9.13;1.98;;;;;;;;;;4976920;28;20939;-75
2023/10/08 15:04:28;;;;;;;9.60;2.15;;;;;;;;;;4976815;28;20112;-75
2023/10/08 15:06:57;;;;;;;9.45;2.05;;;;;;;;;;4975467;28;20177;-73
2023/10/08 15:09:23;;;;;;;9.38;2.20;;;;;;;;;;4960003;28;20049;-76
2023/10/08 15:11:52;;;;;;;13.57;2.35;;;;;;;;;;4976061;28;20089;-77
2023/10/08 15:14:19;;;;;;;11.32;4.03;;;;;;;;;;4976787;28;20193;-74
2023/10/08 15:16:51;;;;;;;10.60;3.33;;;;;;;;;;4975795;28;20054;-75
2023/10/08 15:19:21;;;;;;;10.73;3.20;;;;;;;;;;4975915;28;20555;-74
2023/10/08 15:21:51;;;;;;;9.93;3.13;;;;;;;;;;4976919;28;20050;-77
2023/10/08 15:24:22;;;;;;;15.15;3.47;;;;;;;;;;4976587;28;20046;-74
2023/10/08 15:26:48;;;;;;;;;;;;;;;;;;4975839;28;20050;-76
2023/10/08 15:29:15;;;;;;;14.45;2.75;;;;;;;;;;4975351;28;20298;-75
2023/10/08 15:31:40;;;;;;;11.00;2.47;;;;;;;;;;4976538;28;20054;-75
2023/10/08 15:34:06;;;;;;;13.73;5.47;;;;;;;;;;4977317;28;20046;-76
2023/10/08 15:36:37;;;;;;;11.52;3.75;;;;;;;;;;4991174;28;20518;-76
2023/10/08 15:39:04;;;;;;;9.60;3.38;;;;;;;;;;4976838;28;20050;-74
2023/10/08 15:41:30;;;;;;;9.73;3.20;;;;;;;;;;4975835;28;20042;-75
2023/10/08 15:43:58;;;;;;;7.68;2.20;;;;;;;;;;4977093;28;20061;-76
2023/10/08 15:46:26;;;;;;;7.45;1.77;;;;;;;;;;4975887;28;20052;-75
2023/10/08 15:48:52;;;;;;;11.80;2.70;;;;;;;;;;4974895;28;20488;-73
2023/10/08 15:51:18;;;;;;;9.00;2.70;;;;;;;;;;4975613;28;20503;-73
2023/10/08 15:53:43;;;;;;;7.30;2.30;;;;;;;;;;4975284;28;20093;-74
2023/10/08 15:56:08;;;;;;;8.85;2.42;;;;;;;;;;4977772;28;20046;-74
2023/10/08 15:58:34;;;;;;;13.02;2.70;;;;;;;;;;4978774;28;20821;-73
2023/10/08 16:00:59;;;;;;;10.77;2.75;;;;;;;;;;4979273;28;20050;-75
2023/10/08 16:03:25;;;;;;;15.00;2.72;;;;;;;;;;4979881;28;20406;-76
2023/10/08 16:05:50;;;;;;;17.90;2.60;;;;;;;;;;4979449;28;20042;-73